Terminal Aerodrome Forecast
Issued by NWS

Home | Current Version | Previous Version | Text Only | Print | Product List | Glossary On
Versions: 1 2 3 4 5 6 7 8 9 10 11 12
000
FTUS45 KRIW 180500
TAFCPR
TAF
KCPR 180525Z 1806/1906 25006KT P6SM SCT120
     FM181600 24014G22KT P6SM SCT120
     FM190100 24011KT P6SM SCT120=

USA.gov is the U.S. government's official web portal to all federal, state and local government web resources and services.